Home   Weather   Arizona   Past weeks
Flag for USA

Past Weather in Arizona, Arizona, USA — Yesterday and Last 2 Weeks

Currently: 39 °F. Sunny. (Weather station: Payson, USA). See more current weather

Past Weather in Arizona — Graph

°F

Arizona Temperature Yesterday

Maximum temperature yesterday: 55 °F (at 12:35 pm)
Minimum temperature yesterday: 34 °F (at 5:55 am)
Average temperature yesterday: 45 °F

High & Low Weather Summary for the Past Weeks

 TemperatureHumidityPressure
High57 °F (Nov 20, 2:55 pm)81% (Nov 29, 9:55 pm)30.39 "Hg (Nov 29, 9:55 pm)
Low30 °F (Nov 16, 6:55 am)12% (Nov 16, 2:35 pm)29.84 "Hg (Nov 28, 5:55 pm)
Average43 °F35%30.16 "Hg
* Reported Nov 16 6:15 am — Dec 1 6:15 am, Arizona. Weather by CustomWeather, © 2022

Note: Actual official high and low records may vary slightly from our data, if they occured in-between our weather recording intervals... More about our weather records

Arizona Weather History for the Previous 24 Hours

Scroll right to see more
 ConditionsComfort  
Time TempWeatherWind HumidityBarometerVisibility
6:15 am
Thu, Dec 1
37 °FClear.No wind60%30.08 "Hg10 mi
5:55 am37 °FClear.No wind60%30.07 "Hg10 mi
5:35 am41 °FClear.5 mph53%30.06 "Hg10 mi
5:15 am39 °FClear.3 mph56%30.06 "Hg10 mi
4:55 am37 °FClear.No wind60%30.06 "Hg10 mi
4:35 am37 °FClear.No wind60%30.07 "Hg10 mi
4:15 am37 °FClear.No wind60%30.07 "Hg10 mi
3:55 am37 °FClear.3 mph60%30.07 "Hg10 mi
3:15 am37 °FClear.No wind60%30.07 "Hg10 mi
2:55 am37 °FClear.No wind60%30.07 "Hg10 mi
2:35 am37 °FClear.No wind60%30.07 "Hg10 mi
2:15 am37 °FClear.No wind60%30.07 "Hg10 mi
1:55 am37 °FClear.No wind60%30.07 "Hg10 mi
1:15 am37 °FClear.No wind60%30.08 "Hg10 mi
12:55 am37 °FClear.3 mph60%30.08 "Hg10 mi
12:35 am37 °FClear.No wind60%30.08 "Hg10 mi
12:15 am37 °FClear.No wind60%30.09 "Hg10 mi
11:55 pm
Wed, Nov 30
41 °FClear.No wind53%30.09 "Hg10 mi
11:15 pm39 °FClear.No wind56%30.10 "Hg10 mi
10:35 pm43 °FClear.3 mph49%30.10 "Hg10 mi
10:15 pm43 °FClear.3 mph49%30.10 "Hg10 mi
9:55 pm43 °FClear.5 mph49%30.10 "Hg10 mi
9:35 pm45 °FClear.3 mph46%30.10 "Hg10 mi
9:15 pm45 °FClear.3 mph46%30.10 "Hg10 mi
8:55 pm41 °FClear.No wind53%30.09 "Hg10 mi
8:35 pm45 °FClear.No wind46%30.09 "Hg10 mi
8:15 pm43 °FClear.No wind49%30.09 "Hg10 mi
7:55 pm46 °FClear.No wind43%30.08 "Hg10 mi
7:35 pm46 °FClear.3 mph43%30.08 "Hg10 mi
7:15 pm46 °FClear.3 mph43%30.08 "Hg10 mi
6:55 pm46 °FClear.No wind43%30.08 "Hg10 mi
6:35 pm46 °FClear.3 mph43%30.07 "Hg10 mi
6:15 pm46 °FClear.3 mph43%30.07 "Hg10 mi
5:55 pm46 °FClear.No wind43%30.08 "Hg10 mi
4:35 pm54 °FSunny.6 mph33%30.06 "Hg10 mi
4:15 pm54 °FSunny.6 mph30%30.06 "Hg10 mi
3:55 pm54 °FSunny.6 mph33%30.07 "Hg10 mi
3:35 pm54 °FSunny.8 mph33%30.06 "Hg10 mi
3:15 pm54 °FSunny.7 mph33%30.07 "Hg10 mi
2:55 pm54 °FSunny.7 mph33%30.07 "Hg10 mi
2:35 pm52 °FSunny.6 mph35%30.07 "Hg10 mi
2:15 pm55 °FSunny.10 mph31%30.07 "Hg10 mi
1:55 pm55 °FSunny.10 mph31%30.07 "Hg10 mi
1:35 pm55 °FSunny.9 mph31%30.08 "Hg10 mi
1:15 pm55 °FSunny.13 mph33%30.09 "Hg10 mi
12:35 pm55 °FSunny.8 mph33%30.10 "Hg10 mi
12:15 pm54 °FSunny.8 mph33%30.11 "Hg10 mi
11:55 am52 °FSunny.7 mph35%30.12 "Hg10 mi
11:35 am52 °FSunny.6 mph35%30.13 "Hg10 mi
11:15 am52 °FSunny.8 mph35%30.14 "Hg10 mi
10:55 am52 °FSunny.6 mph35%30.15 "Hg10 mi
10:35 am50 °FSunny.7 mph37%30.15 "Hg10 mi
10:15 am48 °FSunny.6 mph40%30.15 "Hg10 mi
9:55 am48 °FSunny.5 mph40%30.15 "Hg10 mi
9:35 am48 °FSunny.3 mph43%30.15 "Hg10 mi
9:15 am46 °FSunny.5 mph46%30.15 "Hg10 mi
8:55 am43 °FSunny.5 mph49%30.14 "Hg10 mi
8:35 am41 °FSunny.6 mph53%30.14 "Hg10 mi
8:15 am41 °FSunny.3 mph57%30.14 "Hg10 mi
7:35 am39 °FSunny.No wind56%30.14 "Hg10 mi
7:15 am37 °FSunny.5 mph60%30.13 "Hg10 mi
Weather by CustomWeather, © 2022

See weather overview